createdAt,value
2018-07-24T00:02:26.043Z,18.00
2018-07-24T00:04:53.310Z,16.97
2018-07-24T00:07:20.685Z,18.73
2018-07-24T00:09:47.989Z,18.27
2018-07-24T00:12:15.343Z,19.50
2018-07-24T00:14:42.682Z,18.30
2018-07-24T00:17:09.909Z,19.13
2018-07-24T00:19:37.169Z,17.10
2018-07-24T00:22:04.577Z,18.27
2018-07-24T00:24:32.051Z,17.80
2018-07-24T00:26:59.359Z,18.73
2018-07-24T00:29:26.609Z,18.90
2018-07-24T00:31:53.901Z,18.30
2018-07-24T00:34:21.164Z,18.90
2018-07-24T00:36:48.449Z,18.13
2018-07-24T00:39:15.761Z,20.10
2018-07-24T00:41:43.094Z,19.80
2018-07-24T00:44:10.445Z,21.90
2018-07-24T00:46:37.710Z,17.90
2018-07-24T00:49:05.499Z,18.90
2018-07-24T00:51:32.845Z,17.70
2018-07-24T00:54:00.121Z,19.17
2018-07-24T00:56:27.434Z,17.40
2018-07-24T00:58:54.722Z,19.63
2018-07-24T01:01:22.094Z,26.97
2018-07-24T01:03:49.359Z,20.70
2018-07-24T01:06:16.613Z,18.03
2018-07-24T01:08:43.901Z,18.83
2018-07-24T01:11:11.167Z,16.93
2018-07-24T01:13:38.421Z,17.53
2018-07-24T01:16:06.129Z,18.13
2018-07-24T01:18:33.510Z,18.23
2018-07-24T01:21:00.757Z,17.07
2018-07-24T01:23:28.173Z,17.87
2018-07-24T01:25:55.418Z,21.13
2018-07-24T01:28:22.682Z,19.67
2018-07-24T01:30:49.947Z,20.27
2018-07-24T01:33:17.248Z,18.90
2018-07-24T01:35:44.490Z,19.60
2018-07-24T01:38:11.814Z,18.93
2018-07-24T01:40:39.072Z,18.93
2018-07-24T01:43:06.377Z,20.20
2018-07-24T01:45:33.645Z,19.77
2018-07-24T01:48:00.921Z,18.33
2018-07-24T01:50:28.189Z,17.50
2018-07-24T01:52:55.493Z,21.30
2018-07-24T01:55:22.764Z,19.80
2018-07-24T01:57:50.123Z,20.43
2018-07-24T02:00:17.798Z,19.07
2018-07-24T02:02:45.077Z,19.30
2018-07-24T02:05:12.717Z,19.43
2018-07-24T02:07:40.364Z,18.70
2018-07-24T02:10:07.761Z,20.17
2018-07-24T02:12:35.078Z,21.63
2018-07-24T02:15:02.461Z,21.10
2018-07-24T02:17:29.743Z,21.60
2018-07-24T02:19:57.059Z,20.57
2018-07-24T02:22:24.508Z,21.13
2018-07-24T02:24:51.793Z,20.23
2018-07-24T02:27:19.078Z,20.83
2018-07-24T02:29:47.066Z,19.90
2018-07-24T02:32:14.971Z,18.30
2018-07-24T02:34:42.270Z,19.20
2018-07-24T02:37:09.910Z,19.20
2018-07-24T02:39:37.193Z,17.67
2018-07-24T02:42:04.653Z,18.87
2018-07-24T02:44:32.050Z,19.50
2018-07-24T02:46:59.346Z,19.80
2018-07-24T02:49:26.638Z,19.50
2018-07-24T02:51:53.997Z,19.60
2018-07-24T02:54:21.327Z,18.10
2018-07-24T02:56:48.629Z,19.30
2018-07-24T02:59:15.996Z,18.10
2018-07-24T03:01:43.259Z,19.77
2018-07-24T03:04:10.566Z,18.97
2018-07-24T03:06:37.828Z,30.50
2018-07-24T03:09:07.079Z,19.73
2018-07-24T03:11:34.358Z,19.50
2018-07-24T03:14:01.646Z,19.93
2018-07-24T03:16:28.967Z,21.97
2018-07-24T03:18:56.206Z,20.47
2018-07-24T03:21:23.528Z,21.90
2018-07-24T03:23:50.824Z,21.40
2018-07-24T03:26:18.122Z,21.70
2018-07-24T03:28:45.453Z,26.90
2018-07-24T03:31:12.705Z,26.00
2018-07-24T03:33:39.983Z,21.63
2018-07-24T03:36:07.230Z,22.83
2018-07-24T03:38:34.510Z,25.20
2018-07-24T03:41:01.759Z,22.53
2018-07-24T03:43:29.061Z,21.87
2018-07-24T03:45:56.346Z,23.87
2018-07-24T03:48:23.642Z,20.20
2018-07-24T03:50:50.934Z,22.00
2018-07-24T03:53:18.202Z,19.17
2018-07-24T03:55:45.542Z,21.60
2018-07-24T03:58:12.811Z,22.70
2018-07-24T04:00:40.212Z,23.10
2018-07-24T04:03:07.490Z,21.30
2018-07-24T04:05:34.860Z,22.80
2018-07-24T04:08:02.135Z,22.00
2018-07-24T04:10:29.401Z,21.80
2018-07-24T04:12:56.677Z,20.30
2018-07-24T04:15:23.970Z,21.27
2018-07-24T04:17:51.261Z,20.73
2018-07-24T04:20:18.557Z,25.23
2018-07-24T04:22:45.834Z,21.67
2018-07-24T04:25:13.096Z,21.93
2018-07-24T04:27:40.385Z,21.80
2018-07-24T04:30:07.627Z,20.60
2018-07-24T04:32:34.953Z,22.13
2018-07-24T04:35:02.221Z,20.80
2018-07-24T04:37:29.614Z,21.97
2018-07-24T04:39:56.957Z,21.50
2018-07-24T04:42:24.186Z,22.93
2018-07-24T04:44:51.711Z,23.90
2018-07-24T04:47:19.042Z,25.17
2018-07-24T04:49:46.290Z,21.60
2018-07-24T04:52:13.612Z,21.77
2018-07-24T04:54:40.866Z,22.47
2018-07-24T04:57:08.230Z,23.43
2018-07-24T04:59:35.478Z,20.43
2018-07-24T05:02:02.773Z,18.47
2018-07-24T05:04:30.062Z,16.50
2018-07-24T05:06:57.342Z,17.67
2018-07-24T05:09:24.605Z,18.53
2018-07-24T05:11:51.855Z,17.03
2018-07-24T05:14:19.394Z,17.50
2018-07-24T05:16:46.770Z,16.50
2018-07-24T05:19:14.031Z,16.30
2018-07-24T05:21:41.326Z,18.57
2018-07-24T05:24:08.602Z,20.97
2018-07-24T05:26:36.470Z,23.57
2018-07-24T05:29:03.973Z,21.03
2018-07-24T05:31:31.430Z,21.33
2018-07-24T05:33:58.802Z,22.33
2018-07-24T05:36:26.243Z,21.13
2018-07-24T05:38:53.575Z,21.70
2018-07-24T05:41:20.941Z,21.23
2018-07-24T05:43:48.242Z,21.50
2018-07-24T05:46:15.866Z,23.43
2018-07-24T05:48:43.864Z,22.63
2018-07-24T05:51:11.163Z,22.53
2018-07-24T05:53:38.497Z,21.73
2018-07-24T05:56:05.766Z,21.07
2018-07-24T05:58:33.285Z,22.30
2018-07-24T06:01:00.591Z,24.30
2018-07-24T06:03:28.067Z,21.63
2018-07-24T06:05:55.447Z,21.03
2018-07-24T06:08:22.777Z,20.63
2018-07-24T06:10:50.146Z,23.13
2018-07-24T06:13:17.481Z,17.57
2018-07-24T06:15:45.103Z,22.53
2018-07-24T06:18:12.394Z,20.43
2018-07-24T06:20:39.797Z,18.83
2018-07-24T06:23:07.114Z,24.07
2018-07-24T06:25:34.461Z,18.10
2018-07-24T06:28:01.774Z,19.43
2018-07-24T06:30:29.123Z,14.70
2018-07-24T06:32:56.492Z,13.33
2018-07-24T06:35:23.794Z,12.00
2018-07-24T06:37:51.205Z,13.80
2018-07-24T06:40:18.575Z,14.13
2018-07-24T06:42:45.939Z,12.13
2018-07-24T06:45:14.151Z,11.60
2018-07-24T06:47:41.481Z,11.30
2018-07-24T06:50:08.819Z,14.33
2018-07-24T06:52:36.181Z,16.13
2018-07-24T06:55:03.550Z,11.57
2018-07-24T06:57:30.896Z,11.97
2018-07-24T06:59:58.225Z,13.10
2018-07-24T07:02:25.581Z,12.93
2018-07-24T07:04:52.919Z,11.80
2018-07-24T07:07:20.281Z,12.00
2018-07-24T07:09:47.618Z,11.17
2018-07-24T07:12:15.095Z,12.73
2018-07-24T07:14:42.330Z,12.10
2018-07-24T07:17:09.875Z,14.70
2018-07-24T07:19:37.263Z,12.93
2018-07-24T07:22:04.663Z,14.33
2018-07-24T07:24:31.958Z,13.73
2018-07-24T07:26:59.278Z,13.27
2018-07-24T07:29:26.717Z,12.30
2018-07-24T07:31:54.154Z,13.27
2018-07-24T07:34:21.466Z,12.27
2018-07-24T07:36:48.808Z,12.57
2018-07-24T07:39:16.210Z,13.10
2018-07-24T07:41:43.699Z,12.97
2018-07-24T07:44:11.020Z,16.27
2018-07-24T07:46:38.466Z,13.90
2018-07-24T07:49:05.809Z,19.37
2018-07-24T07:51:33.221Z,12.87
2018-07-24T07:54:00.574Z,13.73
2018-07-24T07:56:27.903Z,14.53
2018-07-24T07:58:55.268Z,14.23
2018-07-24T08:01:22.572Z,16.70
2018-07-24T08:03:49.946Z,13.23
2018-07-24T08:06:17.333Z,12.90
2018-07-24T08:08:44.723Z,12.60
2018-07-24T08:11:12.331Z,11.87
2018-07-24T08:13:39.746Z,12.17
2018-07-24T08:16:07.061Z,12.30
2018-07-24T08:18:34.445Z,11.67
2018-07-24T08:21:01.758Z,12.97
2018-07-24T08:23:29.258Z,12.47
2018-07-24T08:25:56.623Z,12.67
2018-07-24T08:28:24.035Z,11.93
2018-07-24T08:30:52.437Z,14.50
2018-07-24T08:33:19.882Z,12.00
2018-07-24T08:35:47.211Z,13.30
2018-07-24T08:38:14.523Z,16.30
2018-07-24T08:40:41.832Z,11.50
2018-07-24T08:43:09.238Z,13.40
2018-07-24T08:45:36.645Z,13.50
2018-07-24T08:48:04.179Z,19.60
2018-07-24T08:50:31.485Z,12.53
2018-07-24T08:52:58.897Z,11.97
2018-07-24T08:55:26.303Z,13.13
2018-07-24T08:57:53.499Z,16.23
2018-07-24T09:00:20.878Z,12.67
2018-07-24T09:02:48.190Z,11.50
2018-07-24T09:05:15.537Z,11.77
2018-07-24T09:07:42.838Z,13.60
2018-07-24T09:10:10.191Z,13.50
2018-07-24T09:12:37.474Z,13.33
2018-07-24T09:15:04.927Z,12.83
2018-07-24T09:17:32.270Z,12.10
2018-07-24T09:19:59.727Z,11.27
2018-07-24T09:22:27.096Z,17.87
2018-07-24T09:24:54.394Z,10.60
2018-07-24T09:27:21.821Z,13.20
2018-07-24T09:29:49.175Z,13.07
2018-07-24T09:32:16.519Z,11.07
2018-07-24T09:34:43.979Z,13.03
2018-07-24T09:37:11.350Z,12.70
2018-07-24T09:39:38.718Z,11.70
2018-07-24T09:42:06.024Z,12.97
2018-07-24T09:44:33.363Z,10.10
2018-07-24T09:47:01.067Z,11.07
2018-07-24T09:49:28.414Z,10.57
2018-07-24T09:51:55.795Z,10.37
2018-07-24T09:54:23.185Z,10.87
2018-07-24T09:56:50.464Z,9.63
2018-07-24T09:59:18.016Z,10.20
2018-07-24T10:01:45.356Z,9.77
2018-07-24T10:04:12.665Z,10.20
2018-07-24T10:06:40.047Z,9.97
2018-07-24T10:09:08.691Z,9.97
2018-07-24T10:11:36.042Z,8.37
2018-07-24T10:14:03.378Z,8.50
2018-07-24T10:16:30.774Z,9.70
2018-07-24T10:18:58.195Z,9.70
2018-07-24T10:21:25.446Z,9.37
2018-07-24T10:23:52.876Z,9.27
2018-07-24T10:26:20.207Z,12.87
2018-07-24T10:28:47.592Z,10.30
2018-07-24T10:31:14.910Z,9.73
2018-07-24T10:33:42.239Z,9.37
2018-07-24T10:36:09.642Z,12.53
2018-07-24T10:38:37.214Z,10.97
2018-07-24T10:41:04.539Z,9.63
2018-07-24T10:43:31.873Z,10.03
2018-07-24T10:45:59.178Z,9.70
2018-07-24T10:48:26.498Z,10.10
2018-07-24T10:50:53.838Z,9.07
2018-07-24T10:53:21.246Z,10.33
2018-07-24T10:55:48.579Z,10.33
2018-07-24T10:58:15.882Z,9.93
2018-07-24T11:00:43.204Z,10.20
2018-07-24T11:03:10.738Z,8.90
2018-07-24T11:05:38.098Z,9.43
2018-07-24T11:08:05.652Z,8.40
2018-07-24T11:10:32.976Z,8.30
2018-07-24T11:13:00.349Z,8.30
2018-07-24T11:15:27.749Z,11.93
2018-07-24T11:17:55.068Z,14.20
2018-07-24T11:20:22.485Z,9.33
2018-07-24T11:22:49.866Z,15.10
2018-07-24T11:25:17.207Z,8.63
2018-07-24T11:27:44.511Z,9.87
2018-07-24T11:30:11.886Z,10.27
2018-07-24T11:32:39.315Z,9.43
2018-07-24T11:35:06.721Z,8.30
2018-07-24T11:37:34.098Z,9.37
2018-07-24T11:40:01.508Z,9.50
2018-07-24T11:42:28.923Z,10.50
2018-07-24T11:44:56.280Z,10.43
2018-07-24T11:47:23.637Z,9.90
2018-07-24T11:49:50.990Z,11.70
2018-07-24T11:52:18.393Z,9.30
2018-07-24T11:54:45.746Z,8.93
2018-07-24T11:57:13.145Z,9.10
2018-07-24T11:59:40.487Z,9.37
2018-07-24T12:02:07.923Z,11.80
2018-07-24T12:04:35.302Z,10.30
2018-07-24T12:07:02.691Z,9.20
2018-07-24T12:09:30.019Z,8.80
2018-07-24T12:11:57.350Z,9.37
2018-07-24T12:14:24.691Z,9.57
2018-07-24T12:16:52.027Z,8.70
2018-07-24T12:19:19.370Z,9.17
2018-07-24T12:21:46.754Z,9.13
2018-07-24T12:24:14.278Z,9.10
2018-07-24T12:26:41.847Z,9.40
2018-07-24T12:29:09.151Z,9.47
2018-07-24T12:31:36.498Z,8.67
2018-07-24T12:34:03.939Z,9.13
2018-07-24T12:36:31.266Z,9.60
2018-07-24T12:38:58.604Z,13.00
2018-07-24T12:41:26.009Z,8.90
2018-07-24T12:43:53.311Z,9.13
2018-07-24T12:46:20.643Z,8.77
2018-07-24T12:48:47.989Z,8.90
2018-07-24T12:51:15.467Z,9.40
2018-07-24T12:53:42.799Z,9.67
2018-07-24T12:56:10.258Z,8.90
2018-07-24T12:58:37.633Z,8.17
2018-07-24T13:01:04.951Z,8.00
2018-07-24T13:03:32.384Z,7.53
2018-07-24T13:06:00.214Z,7.87
2018-07-24T13:08:27.547Z,9.33
2018-07-24T13:10:55.045Z,8.10
2018-07-24T13:13:22.458Z,8.53
2018-07-24T13:15:49.778Z,8.20
2018-07-24T13:18:17.240Z,8.47
2018-07-24T13:20:44.631Z,8.50
2018-07-24T13:23:12.006Z,9.03
2018-07-24T13:25:39.363Z,7.27
2018-07-24T13:28:06.787Z,8.07
2018-07-24T13:30:34.157Z,6.57
2018-07-24T13:33:01.526Z,7.90
2018-07-24T13:35:28.822Z,12.10
2018-07-24T13:37:56.166Z,8.80
2018-07-24T13:40:23.498Z,9.00
2018-07-24T13:42:50.831Z,12.23
2018-07-24T13:45:18.171Z,9.83
2018-07-24T13:47:45.467Z,8.90
2018-07-24T13:50:12.814Z,9.00
2018-07-24T13:52:40.147Z,7.50
2018-07-24T13:55:07.565Z,7.40
2018-07-24T13:57:34.901Z,9.30
2018-07-24T14:00:02.269Z,8.27
2018-07-24T14:02:29.563Z,8.10
2018-07-24T14:04:56.865Z,7.53
2018-07-24T14:07:24.738Z,8.80
2018-07-24T14:09:52.131Z,7.30
2018-07-24T14:12:19.450Z,7.43
2018-07-24T14:14:46.794Z,6.93
2018-07-24T14:17:14.354Z,6.37
2018-07-24T14:19:42.370Z,7.00
2018-07-24T14:22:09.804Z,7.80
2018-07-24T14:24:37.175Z,10.00
2018-07-24T14:27:04.524Z,7.90
2018-07-24T14:29:31.868Z,7.30
2018-07-24T14:31:59.206Z,7.93
2018-07-24T14:34:26.530Z,9.43
2018-07-24T14:36:53.927Z,7.43
2018-07-24T14:39:21.185Z,7.87
2018-07-24T14:41:48.582Z,8.00
2018-07-24T14:44:15.996Z,7.87
2018-07-24T14:46:43.306Z,7.57
2018-07-24T14:49:10.605Z,7.17
2018-07-24T14:51:38.025Z,8.53
2018-07-24T14:54:05.390Z,7.80
2018-07-24T14:56:32.738Z,8.47
2018-07-24T14:59:00.158Z,9.60
2018-07-24T15:01:27.482Z,8.70
2018-07-24T15:03:54.790Z,9.37
2018-07-24T15:06:22.363Z,7.83
2018-07-24T15:08:49.710Z,7.93
2018-07-24T15:11:17.097Z,8.00
2018-07-24T15:13:44.439Z,8.80
2018-07-24T15:16:11.734Z,8.40
2018-07-24T15:18:38.997Z,11.40
2018-07-24T15:21:06.320Z,6.87
2018-07-24T15:23:33.628Z,12.47
2018-07-24T15:26:00.932Z,13.77
2018-07-24T15:28:28.234Z,8.67
2018-07-24T15:30:55.554Z,7.53
2018-07-24T15:33:22.975Z,8.67
2018-07-24T15:35:50.228Z,8.40
2018-07-24T15:38:17.564Z,7.87
2018-07-24T15:40:44.829Z,7.07
2018-07-24T15:43:12.162Z,7.80
2018-07-24T15:45:39.454Z,7.77
2018-07-24T15:48:06.839Z,8.23
2018-07-24T15:50:34.122Z,8.40
2018-07-24T15:53:01.507Z,7.80
2018-07-24T15:55:28.841Z,9.77
2018-07-24T15:57:56.138Z,8.23
2018-07-24T16:00:23.470Z,10.83
2018-07-24T16:02:50.849Z,9.07
2018-07-24T16:05:18.159Z,8.57
2018-07-24T16:07:45.477Z,8.03
2018-07-24T16:10:12.742Z,8.63
2018-07-24T16:12:40.020Z,6.80
2018-07-24T16:15:07.334Z,10.13
2018-07-24T16:17:34.664Z,8.97
2018-07-24T16:20:02.067Z,7.60
2018-07-24T16:22:29.397Z,7.70
2018-07-24T16:24:56.793Z,7.80
2018-07-24T16:27:24.209Z,8.83
2018-07-24T16:29:51.469Z,9.63
2018-07-24T16:32:18.860Z,8.60
2018-07-24T16:34:46.157Z,8.20
2018-07-24T16:37:13.556Z,8.53
2018-07-24T16:39:40.886Z,7.80
2018-07-24T16:42:08.254Z,8.00
2018-07-24T16:44:35.510Z,7.93
2018-07-24T16:47:02.888Z,9.07
2018-07-24T16:49:30.210Z,9.27
2018-07-24T16:51:57.545Z,8.60
2018-07-24T16:54:24.802Z,9.20
2018-07-24T16:56:52.082Z,9.07
2018-07-24T16:59:19.361Z,8.60
2018-07-24T17:01:46.697Z,8.47
2018-07-24T17:04:14.023Z,10.27
2018-07-24T17:06:41.358Z,9.00
2018-07-24T17:09:09.986Z,9.50
2018-07-24T17:11:37.710Z,8.60
2018-07-24T17:14:05.091Z,8.90
2018-07-24T17:16:32.387Z,9.90
2018-07-24T17:18:59.701Z,9.30
2018-07-24T17:21:27.020Z,8.17
2018-07-24T17:23:54.272Z,10.60
2018-07-24T17:26:21.640Z,10.30
2018-07-24T17:28:48.898Z,10.70
2018-07-24T17:31:16.350Z,9.03
2018-07-24T17:33:43.688Z,8.10
2018-07-24T17:36:11.066Z,8.80
2018-07-24T17:38:38.369Z,8.33
2018-07-24T17:41:05.867Z,8.60
2018-07-24T17:43:33.193Z,9.03
2018-07-24T17:46:00.557Z,9.50
2018-07-24T17:48:28.195Z,8.97
2018-07-24T17:50:55.222Z,9.50
2018-07-24T17:53:22.662Z,9.13
2018-07-24T17:55:50.084Z,8.53
2018-07-24T17:58:17.383Z,8.67
2018-07-24T18:00:44.648Z,7.50
2018-07-24T18:03:11.946Z,8.83
2018-07-24T18:05:39.250Z,9.43
2018-07-24T18:08:06.590Z,13.70
2018-07-24T18:10:33.879Z,7.87
2018-07-24T18:13:01.155Z,7.90
2018-07-24T18:15:28.528Z,17.23
2018-07-24T18:17:55.770Z,8.27
2018-07-24T18:20:23.078Z,7.70
2018-07-24T18:22:50.373Z,8.70
2018-07-24T18:25:17.765Z,8.50
2018-07-24T18:27:45.133Z,8.40
2018-07-24T18:30:12.353Z,9.17
2018-07-24T18:32:39.637Z,9.43
2018-07-24T18:35:07.287Z,9.07
2018-07-24T18:37:34.619Z,9.03
2018-07-24T18:40:01.996Z,9.33
2018-07-24T18:42:29.303Z,9.43
2018-07-24T18:44:56.597Z,9.83
2018-07-24T18:47:24.308Z,9.40
2018-07-24T18:49:51.565Z,10.53
2018-07-24T18:52:18.924Z,12.60
2018-07-24T18:54:46.198Z,9.30
2018-07-24T18:57:13.504Z,9.80
2018-07-24T18:59:40.823Z,8.60
2018-07-24T19:02:08.107Z,9.00
2018-07-24T19:04:35.401Z,9.03
2018-07-24T19:07:02.731Z,8.93
2018-07-24T19:09:30.065Z,8.93
2018-07-24T19:11:57.341Z,9.37
2018-07-24T19:14:24.638Z,9.77
2018-07-24T19:16:51.981Z,8.67
2018-07-24T19:19:19.241Z,13.23
2018-07-24T19:21:46.568Z,9.97
2018-07-24T19:24:13.853Z,10.90
2018-07-24T19:26:41.178Z,9.60
2018-07-24T19:29:08.517Z,8.13
2018-07-24T19:31:35.959Z,9.00
2018-07-24T19:34:03.250Z,9.73
2018-07-24T19:36:30.656Z,12.90
2018-07-24T19:38:58.064Z,16.80
2018-07-24T19:41:25.413Z,9.10
2018-07-24T19:43:52.798Z,11.80
2018-07-24T19:46:20.027Z,13.70
2018-07-24T19:48:47.346Z,11.20
2018-07-24T19:51:14.642Z,19.70
2018-07-24T19:53:41.985Z,22.50
2018-07-24T19:56:09.310Z,14.07
2018-07-24T19:58:36.594Z,8.73
2018-07-24T20:01:03.999Z,9.63
2018-07-24T20:03:31.343Z,9.10
2018-07-24T20:05:59.405Z,10.27
2018-07-24T20:08:26.717Z,13.63
2018-07-24T20:10:54.013Z,18.60
2018-07-24T20:13:25.105Z,14.03
2018-07-24T20:15:52.364Z,10.47
2018-07-24T20:18:19.755Z,11.43
2018-07-24T20:20:47.020Z,14.20
2018-07-24T20:23:14.355Z,17.43
2018-07-24T20:25:41.782Z,13.83
2018-07-24T20:28:09.128Z,8.90
2018-07-24T20:30:36.547Z,12.13
2018-07-24T20:33:03.894Z,10.93
2018-07-24T20:35:31.296Z,12.00
2018-07-24T20:37:58.605Z,10.40
2018-07-24T20:40:25.956Z,14.70
2018-07-24T20:42:53.369Z,11.90
2018-07-24T20:45:20.716Z,11.47
2018-07-24T20:47:48.066Z,11.40
2018-07-24T20:50:15.542Z,12.00
2018-07-24T20:52:42.933Z,10.33
2018-07-24T20:55:10.279Z,14.63
2018-07-24T20:57:37.693Z,11.03
2018-07-24T21:00:05.198Z,10.80
2018-07-24T21:02:32.496Z,9.87
2018-07-24T21:04:59.758Z,11.33
2018-07-24T21:07:27.133Z,11.93
2018-07-24T21:09:54.427Z,9.60
2018-07-24T21:12:21.774Z,10.80
2018-07-24T21:14:49.202Z,9.37
2018-07-24T21:17:16.577Z,9.97
2018-07-24T21:19:43.872Z,11.03
2018-07-24T21:22:11.186Z,12.13
2018-07-24T21:24:38.515Z,11.03
2018-07-24T21:27:05.889Z,9.00
2018-07-24T21:29:33.201Z,10.00
2018-07-24T21:32:00.467Z,10.20
2018-07-24T21:34:27.798Z,12.50
2018-07-24T21:36:55.065Z,11.10
2018-07-24T21:39:22.378Z,12.93
2018-07-24T21:41:49.686Z,10.87
2018-07-24T21:44:17.008Z,10.43
2018-07-24T21:46:44.328Z,10.43
2018-07-24T21:49:11.755Z,11.70
2018-07-24T21:51:38.975Z,10.53
2018-07-24T21:54:06.322Z,10.77
2018-07-24T21:56:33.583Z,14.80
2018-07-24T21:59:00.922Z,10.67
2018-07-24T22:01:28.304Z,10.27
2018-07-24T22:03:55.611Z,10.00
2018-07-24T22:06:22.926Z,10.50
2018-07-24T22:08:50.261Z,13.37
2018-07-24T22:11:17.552Z,10.83
2018-07-24T22:13:44.915Z,12.37
2018-07-24T22:16:12.244Z,12.67
2018-07-24T22:18:39.650Z,23.50
2018-07-24T22:21:07.347Z,13.17
2018-07-24T22:23:34.652Z,13.13
2018-07-24T22:26:01.973Z,10.67
2018-07-24T22:28:29.245Z,10.50
2018-07-24T22:30:56.515Z,10.27
2018-07-24T22:33:23.942Z,10.73
2018-07-24T22:35:51.287Z,10.73
2018-07-24T22:38:18.558Z,10.60
2018-07-24T22:40:45.929Z,10.63
2018-07-24T22:43:13.278Z,11.80
2018-07-24T22:45:40.598Z,11.23
2018-07-24T22:48:07.986Z,12.10
2018-07-24T22:50:35.258Z,11.00
2018-07-24T22:53:02.581Z,11.73
2018-07-24T22:55:29.977Z,11.60
2018-07-24T22:57:57.314Z,10.47
2018-07-24T23:00:24.615Z,16.57
2018-07-24T23:02:51.923Z,11.93
2018-07-24T23:05:19.286Z,12.47
2018-07-24T23:07:46.579Z,11.90
2018-07-24T23:10:13.884Z,11.37
2018-07-24T23:12:41.136Z,11.67
2018-07-24T23:15:08.432Z,11.07
2018-07-24T23:17:35.694Z,11.53
2018-07-24T23:20:03.037Z,13.73
2018-07-24T23:22:30.317Z,12.17
2018-07-24T23:24:57.557Z,12.00
2018-07-24T23:27:25.032Z,12.00
2018-07-24T23:29:52.282Z,12.50
2018-07-24T23:32:19.578Z,14.13
2018-07-24T23:34:46.865Z,13.73
2018-07-24T23:37:14.157Z,16.20
2018-07-24T23:39:42.158Z,13.07
2018-07-24T23:42:09.605Z,13.53
2018-07-24T23:44:36.909Z,12.07
2018-07-24T23:47:04.239Z,15.73
2018-07-24T23:49:31.581Z,12.90
2018-07-24T23:51:58.893Z,11.93
2018-07-24T23:54:26.209Z,12.37
2018-07-24T23:56:53.476Z,11.10
2018-07-24T23:59:20.794Z,12.53
